Time;durP1;ratioP1;P1;durP2;ratioP2;P2;SDS_P1;SDS_P2;PMS_P1;PMS_P2;Temp;Humidity;BMP_temperature;BMP_pressure;BME280_temperature;BME280_humidity;BME280_pressure;Samples;Min_cycle;Max_cycle;Signal;HPM_P1;HPM_P2
2021/11/23 00:01:58;;;;;;;7.18;1.65;;;21.20;51.80;;;;;;4932745;29;21759;-53
2021/11/23 00:04:28;;;;;;;3.97;1.40;;;21.30;51.60;;;;;;4930842;29;20234;-51
2021/11/23 00:06:59;;;;;;;5.57;1.52;;;21.30;51.80;;;;;;4930593;29;20255;-50
2021/11/23 00:09:29;;;;;;;3.83;1.60;;;21.30;51.70;;;;;;4932927;29;20251;-51
2021/11/23 00:12:02;;;;;;;8.02;2.17;;;21.30;51.50;;;;;;4932525;29;20212;-47
2021/11/23 00:14:33;;;;;;;4.75;1.50;;;21.30;51.40;;;;;;4930446;29;20227;-46
2021/11/23 00:17:03;;;;;;;5.88;1.73;;;21.30;51.40;;;;;;4932149;29;20569;-49
2021/11/23 00:19:34;;;;;;;3.40;1.20;;;21.30;51.30;;;;;;4932796;29;20258;-50
2021/11/23 00:22:05;;;;;;;5.55;1.45;;;21.40;51.30;;;;;;4932664;29;20199;-50
2021/11/23 00:24:35;;;;;;;6.32;1.90;;;21.40;51.40;;;;;;4929561;29;20231;-49
2021/11/23 00:27:08;;;;;;;6.15;1.42;;;21.40;51.50;;;;;;4930925;29;20699;-50
2021/11/23 00:29:39;;;;;;;4.72;1.55;;;21.40;51.50;;;;;;4932324;29;20199;-48
2021/11/23 00:32:10;;;;;;;4.43;1.48;;;21.40;51.40;;;;;;4932154;29;20204;-51
2021/11/23 00:34:40;;;;;;;4.05;1.23;;;21.40;51.60;;;;;;4931081;29;20711;-52
2021/11/23 00:37:11;;;;;;;4.68;1.80;;;21.40;51.60;;;;;;4931385;29;20274;-52
2021/11/23 00:39:42;;;;;;;5.93;1.33;;;21.40;51.70;;;;;;4932152;29;20240;-48
2021/11/23 00:42:14;;;;;;;10.15;1.73;;;21.40;51.70;;;;;;4931972;29;20192;-52
2021/11/23 00:44:45;;;;;;;6.03;1.80;;;21.50;51.60;;;;;;4930332;29;20231;-54
2021/11/23 00:47:15;;;;;;;7.65;1.65;;;21.50;51.60;;;;;;4929240;29;21030;-51
2021/11/23 00:49:46;;;;;;;6.40;1.30;;;21.50;51.60;;;;;;4929931;29;20200;-50
2021/11/23 00:52:18;;;;;;;3.28;1.40;;;21.50;51.50;;;;;;4931040;29;20610;-54
2021/11/23 00:54:49;;;;;;;2.90;1.20;;;21.50;51.50;;;;;;4931120;29;20300;-52
2021/11/23 00:57:21;;;;;;;6.05;1.70;;;21.50;51.50;;;;;;4931307;29;20203;-49
2021/11/23 00:59:52;;;;;;;7.97;1.52;;;21.50;51.40;;;;;;4930961;29;20200;-51
2021/11/23 01:02:22;;;;;;;4.82;1.20;;;21.50;51.40;;;;;;4930548;29;20250;-50
2021/11/23 01:04:53;;;;;;;4.53;1.40;;;21.60;51.40;;;;;;4929880;29;20235;-50
2021/11/23 01:07:23;;;;;;;4.25;1.30;;;21.60;51.40;;;;;;4930763;29;20268;-46
2021/11/23 01:09:54;;;;;;;4.38;1.50;;;21.60;51.40;;;;;;4930770;29;20668;-47
2021/11/23 01:12:27;;;;;;;4.03;1.30;;;21.60;51.50;;;;;;4930360;29;20259;-49
2021/11/23 01:14:57;;;;;;;7.68;1.48;;;21.60;51.50;;;;;;4930330;29;20579;-50
2021/11/23 01:17:28;;;;;;;5.22;1.48;;;21.70;51.50;;;;;;4930574;29;20207;-50
2021/11/23 01:19:59;;;;;;;3.17;1.20;;;21.70;51.50;;;;;;4930950;29;20203;-53
2021/11/23 01:22:29;;;;;;;4.93;1.60;;;21.70;51.40;;;;;;4931228;29;20246;-50
2021/11/23 01:25:00;;;;;;;5.90;1.60;;;21.70;51.40;;;;;;4929400;29;20290;-49
2021/11/23 01:27:32;;;;;;;3.13;1.30;;;21.70;51.50;;;;;;4929130;29;20200;-47
2021/11/23 01:30:03;;;;;;;3.63;1.30;;;21.80;51.40;;;;;;4931605;29;20665;-50
2021/11/23 01:32:33;;;;;;;4.20;1.38;;;21.80;51.40;;;;;;4930442;29;20732;-53
2021/11/23 01:35:04;;;;;;;2.78;1.25;;;21.80;51.40;;;;;;4929193;29;20294;-53
2021/11/23 01:37:35;;;;;;;4.45;1.52;;;21.80;51.30;;;;;;4929040;29;20212;-52
2021/11/23 01:40:06;;;;;;;2.30;1.08;;;21.80;51.30;;;;;;4931057;29;20200;-50
2021/11/23 01:42:39;;;;;;;2.53;1.13;;;21.90;51.30;;;;;;4930219;29;20195;-53
2021/11/23 01:45:10;;;;;;;3.40;1.33;;;21.90;51.30;;;;;;4928050;29;20239;-53
2021/11/23 01:47:41;;;;;;;4.07;1.40;;;21.90;51.30;;;;;;4929489;29;20763;-52
2021/11/23 01:50:15;;;;;;;3.88;1.15;;;21.90;51.20;;;;;;4930351;29;20251;-54
2021/11/23 01:52:47;;;;;;;3.42;1.10;;;22.00;51.20;;;;;;4930378;29;20224;-50
2021/11/23 01:55:18;;;;;;;4.82;1.60;;;22.00;51.10;;;;;;4929213;29;20258;-50
2021/11/23 01:57:51;;;;;;;3.80;1.15;;;22.00;51.10;;;;;;4928987;29;20536;-51
2021/11/23 02:00:21;;;;;;;4.28;1.40;;;22.00;51.00;;;;;;4931364;29;20656;-49
2021/11/23 02:02:52;;;;;;;6.43;1.45;;;22.00;50.90;;;;;;4929936;29;20199;-50
2021/11/23 02:05:22;;;;;;;6.20;2.20;;;22.10;50.90;;;;;;4929006;29;20223;-51
2021/11/23 02:07:53;;;;;;;4.85;1.65;;;22.10;50.80;;;;;;4929883;29;20204;-50
2021/11/23 02:10:24;;;;;;;4.78;1.90;;;22.10;50.70;;;;;;4931265;29;20633;-49
2021/11/23 02:12:56;;;;;;;6.30;1.75;;;22.10;50.70;;;;;;4929547;29;20235;-53
2021/11/23 02:15:27;;;;;;;5.55;1.40;;;22.10;50.60;;;;;;4928318;29;20231;-50
2021/11/23 02:17:57;;;;;;;5.57;1.77;;;22.10;50.50;;;;;;4929801;29;20208;-54
2021/11/23 02:20:31;;;;;;;4.07;1.80;;;22.10;50.50;;;;;;4917275;29;20202;-46
2021/11/23 02:23:01;;;;;;;2.80;1.70;;;22.20;50.40;;;;;;4928780;29;20250;-51
2021/11/23 02:25:32;;;;;;;5.90;2.00;;;22.20;50.40;;;;;;4929446;29;20234;-51
2021/11/23 02:28:06;;;;;;;3.67;1.40;;;22.20;50.20;;;;;;4930103;29;20204;-51
2021/11/23 02:30:39;;;;;;;5.45;1.70;;;22.20;50.20;;;;;;4930273;29;20210;-52
2021/11/23 02:33:10;;;;;;;4.07;1.50;;;22.20;50.10;;;;;;4930139;29;20206;-51
2021/11/23 02:35:43;;;;;;;5.30;1.77;;;22.20;50.00;;;;;;4928108;29;20282;-52
2021/11/23 02:38:13;;;;;;;4.82;1.65;;;22.20;49.90;;;;;;4928262;29;20263;-45
2021/11/23 02:40:44;;;;;;;3.58;1.35;;;22.20;49.80;;;;;;4928739;29;20200;-48
2021/11/23 02:43:15;;;;;;;3.78;1.40;;;22.20;49.70;;;;;;4929518;29;20811;-54
2021/11/23 02:45:46;;;;;;;5.30;1.80;;;22.20;49.80;;;;;;4928870;29;20239;-51
2021/11/23 02:48:17;;;;;;;8.43;1.77;;;22.20;49.70;;;;;;4929028;29;20620;-48
2021/11/23 02:50:56;;;;;;;6.28;1.75;;;22.20;49.70;;;;;;4929439;29;20277;-54
2021/11/23 02:53:26;;;;;;;2.90;1.05;;;22.10;49.70;;;;;;4927760;29;20565;-49
2021/11/23 02:55:57;;;;;;;4.25;1.45;;;22.20;49.70;;;;;;4926882;29;20216;-53
2021/11/23 02:58:29;;;;;;;3.30;1.20;;;22.10;49.70;;;;;;4928384;29;20215;-52
2021/11/23 03:01:00;;;;;;;6.68;1.92;;;22.10;50.30;;;;;;4929972;29;20298;-50
2021/11/23 03:03:31;;;;;;;6.38;2.10;;;22.10;49.70;;;;;;4928453;29;20203;-49
2021/11/23 03:06:04;;;;;;;5.60;1.58;;;22.10;49.60;;;;;;4928338;29;20255;-52
2021/11/23 03:08:36;;;;;;;5.60;1.70;;;22.10;49.60;;;;;;4928325;29;20290;-52
2021/11/23 03:11:06;;;;;;;5.15;1.45;;;22.10;49.70;;;;;;4928246;29;20211;-53
2021/11/23 03:13:37;;;;;;;3.88;1.40;;;22.10;49.70;;;;;;4927607;29;20600;-47
2021/11/23 03:16:08;;;;;;;5.70;1.67;;;22.10;49.70;;;;;;4928219;29;20275;-55
2021/11/23 03:18:38;;;;;;;3.40;1.30;;;22.10;49.60;;;;;;4928416;29;20290;-52
2021/11/23 03:21:11;;;;;;;3.95;1.83;;;22.10;49.60;;;;;;4929630;29;20195;-50
2021/11/23 03:23:42;;;;;;;4.22;1.30;;;22.10;49.50;;;;;;4929169;29;20204;-53
2021/11/23 03:26:12;;;;;;;4.38;1.23;;;22.10;49.50;;;;;;4927084;29;20278;-55
2021/11/23 03:28:43;;;;;;;5.47;1.50;;;22.10;49.50;;;;;;4928661;29;20199;-50
2021/11/23 03:31:13;;;;;;;5.03;1.92;;;22.10;49.40;;;;;;4929400;29;20302;-49
2021/11/23 03:33:44;;;;;;;5.38;1.52;;;22.10;49.40;;;;;;4927665;29;20208;-50
2021/11/23 03:36:17;;;;;;;3.42;1.23;;;22.00;49.40;;;;;;4928073;29;20274;-55
2021/11/23 03:38:48;;;;;;;6.25;1.50;;;22.00;49.30;;;;;;4928273;29;20203;-53
2021/11/23 03:41:18;;;;;;;5.93;1.77;;;22.00;49.30;;;;;;4929253;29;20679;-52
2021/11/23 03:43:49;;;;;;;7.40;1.52;;;22.00;49.30;;;;;;4927885;29;20195;-52
2021/11/23 03:46:19;;;;;;;4.93;1.80;;;22.00;49.30;;;;;;4928435;29;20216;-50
2021/11/23 03:48:50;;;;;;;4.47;1.48;;;22.00;49.30;;;;;;4928360;29;20203;-50
2021/11/23 03:51:23;;;;;;;4.25;1.40;;;22.00;49.30;;;;;;4929925;29;20258;-52
2021/11/23 03:53:54;;;;;;;4.68;1.35;;;22.00;49.30;;;;;;4928643;29;20207;-49
2021/11/23 03:56:25;;;;;;;5.90;1.40;;;22.00;49.30;;;;;;4929126;29;20704;-51
2021/11/23 03:58:59;;;;;;;4.70;1.30;;;21.90;49.30;;;;;;4928029;29;20199;-48
2021/11/23 04:01:29;;;;;;;4.78;1.60;;;21.90;49.20;;;;;;4922944;29;20219;-45
2021/11/23 04:04:00;;;;;;;4.43;1.42;;;22.00;49.30;;;;;;4928498;29;20207;-50
2021/11/23 04:06:32;;;;;;;2.97;1.27;;;21.90;49.20;;;;;;4928172;29;20276;-46
2021/11/23 04:09:03;;;;;;;3.05;1.40;;;21.90;49.10;;;;;;4928813;29;20259;-46
2021/11/23 04:11:34;;;;;;;6.85;1.58;;;21.90;49.10;;;;;;4929231;29;20260;-50
2021/11/23 04:14:04;;;;;;;6.57;1.70;;;21.90;49.10;;;;;;4929226;29;20207;-55
2021/11/23 04:16:36;;;;;;;4.78;1.65;;;21.90;49.00;;;;;;4928142;29;20278;-47
2021/11/23 04:19:07;;;;;;;5.82;1.88;;;21.90;49.00;;;;;;4927996;29;21096;-48
2021/11/23 04:21:39;;;;;;;4.40;1.30;;;21.90;49.70;;;;;;4929074;29;20664;-46
2021/11/23 04:24:10;;;;;;;4.75;1.40;;;21.90;49.20;;;;;;4928612;29;20235;-54
2021/11/23 04:26:40;;;;;;;5.35;1.15;;;21.90;49.20;;;;;;4930525;29;20203;-51
2021/11/23 04:29:11;;;;;;;10.45;1.90;;;21.90;49.20;;;;;;4931730;29;20245;-48
2021/11/23 04:31:42;;;;;;;7.53;2.20;;;21.90;49.20;;;;;;4932354;29;20196;-48
2021/11/23 04:34:12;;;;;;;4.93;1.95;;;21.90;49.20;;;;;;4926987;29;20195;-49
2021/11/23 04:36:45;;;;;;;7.53;1.40;;;21.90;49.20;;;;;;4930347;29;20259;-52
2021/11/23 04:39:15;;;;;;;3.88;1.80;;;21.80;49.20;;;;;;4932329;29;20591;-55
2021/11/23 04:41:46;;;;;;;6.70;1.70;;;21.80;49.20;;;;;;4932845;29;20215;-50
2021/11/23 04:44:17;;;;;;;4.43;1.50;;;21.90;49.30;;;;;;4930887;29;20260;-51
2021/11/23 04:46:47;;;;;;;6.28;1.67;;;21.90;49.30;;;;;;4931938;29;20223;-52
2021/11/23 04:49:18;;;;;;;4.82;1.80;;;21.90;49.30;;;;;;4931768;29;20258;-52
2021/11/23 04:51:51;;;;;;;3.65;1.30;;;21.90;49.30;;;;;;4932858;29;20248;-53
2021/11/23 04:54:21;;;;;;;5.28;1.45;;;21.90;49.30;;;;;;4932339;29;20200;-52
2021/11/23 04:56:52;;;;;;;6.80;1.40;;;21.90;49.30;;;;;;4931483;29;20215;-47
2021/11/23 04:59:23;;;;;;;4.18;1.40;;;21.90;49.30;;;;;;4932352;29;21231;-47
2021/11/23 05:01:54;;;;;;;4.80;1.77;;;21.90;49.30;;;;;;4931887;29;20247;-56
2021/11/23 05:04:25;;;;;;;3.33;1.30;;;21.90;49.30;;;;;;4930003;29;20199;-53
2021/11/23 05:06:57;;;;;;;4.50;1.45;;;21.90;49.30;;;;;;4930432;29;20200;-55
2021/11/23 05:09:28;;;;;;;3.92;1.50;;;21.90;49.30;;;;;;4930581;29;20207;-50
2021/11/23 05:11:58;;;;;;;4.22;1.33;;;21.90;49.20;;;;;;4931934;29;20203;-54
2021/11/23 05:14:29;;;;;;;5.72;1.50;;;21.90;49.20;;;;;;4929223;29;20274;-47
2021/11/23 05:17:00;;;;;;;3.15;1.30;;;21.90;49.10;;;;;;4930719;29;20195;-50
2021/11/23 05:19:30;;;;;;;4.68;1.77;;;21.90;49.00;;;;;;4932370;29;20668;-52
2021/11/23 05:22:03;;;;;;;3.30;1.30;;;21.90;49.10;;;;;;4931767;29;20279;-55
2021/11/23 05:24:34;;;;;;;3.33;0.90;;;21.90;49.00;;;;;;4931349;29;20216;-51
2021/11/23 05:27:05;;;;;;;4.28;1.33;;;21.90;49.00;;;;;;4930801;29;20208;-49
2021/11/23 05:29:36;;;;;;;4.13;1.40;;;21.90;49.00;;;;;;4931257;29;20204;-50
2021/11/23 05:32:07;;;;;;;4.05;1.40;;;21.90;49.00;;;;;;4930697;29;20275;-46
2021/11/23 05:34:38;;;;;;;4.90;1.20;;;21.90;49.00;;;;;;4930169;29;20286;-47
2021/11/23 05:37:10;;;;;;;4.97;1.55;;;21.90;49.00;;;;;;4929674;29;20207;-49
2021/11/23 05:39:41;;;;;;;4.78;1.60;;;21.90;49.00;;;;;;4930773;29;20204;-51
2021/11/23 05:42:12;;;;;;;6.97;1.88;;;21.90;49.00;;;;;;4931457;29;20195;-52
2021/11/23 05:44:43;;;;;;;4.82;2.25;;;21.90;49.00;;;;;;4930208;29;20283;-49
2021/11/23 05:47:14;;;;;;;7.00;2.53;;;21.90;49.00;;;;;;4929108;29;20200;-46
2021/11/23 05:49:44;;;;;;;6.13;2.92;;;21.90;49.00;;;;;;4931195;29;20195;-49
2021/11/23 05:52:17;;;;;;;5.72;2.22;;;21.90;48.90;;;;;;4930819;29;20248;-50
2021/11/23 05:54:49;;;;;;;10.18;3.13;;;21.90;49.00;;;;;;4929439;29;20235;-49
2021/11/23 05:57:19;;;;;;;6.78;2.30;;;21.90;48.90;;;;;;4929197;29;20227;-50
2021/11/23 05:59:50;;;;;;;4.63;2.20;;;21.90;48.90;;;;;;4930825;29;20243;-47
2021/11/23 06:02:20;;;;;;;6.20;2.67;;;21.80;48.90;;;;;;4930617;29;20211;-51
2021/11/23 06:04:51;;;;;;;5.70;2.20;;;21.80;48.80;;;;;;4929191;29;20235;-50
2021/11/23 06:07:24;;;;;;;6.05;2.38;;;21.80;48.80;;;;;;4929811;29;20255;-50
2021/11/23 06:09:54;;;;;;;3.78;1.90;;;21.80;48.80;;;;;;4930599;29;20208;-51
2021/11/23 06:12:28;;;;;;;4.95;2.10;;;21.80;48.80;;;;;;4931127;29;20210;-51
2021/11/23 06:14:59;;;;;;;7.05;2.40;;;21.80;48.80;;;;;;4930622;29;20231;-51
2021/11/23 06:17:30;;;;;;;5.43;2.05;;;21.80;48.80;;;;;;4928618;29;20203;-50
2021/11/23 06:20:01;;;;;;;5.00;1.75;;;21.80;48.80;;;;;;4930161;29;20225;-49
2021/11/23 06:22:34;;;;;;;4.13;1.83;;;21.80;48.80;;;;;;4930031;29;20200;-48
2021/11/23 06:25:07;;;;;;;4.55;2.15;;;21.80;48.90;;;;;;4918627;29;20904;-49
2021/11/23 06:27:39;;;;;;;5.28;2.00;;;21.80;48.90;;;;;;4929665;29;20207;-50
2021/11/23 06:30:10;;;;;;;4.47;2.17;;;21.80;48.80;;;;;;4930314;29;20263;-52
2021/11/23 06:32:41;;;;;;;3.50;2.00;;;21.70;48.80;;;;;;4930115;29;20199;-49
2021/11/23 06:35:12;;;;;;;4.82;2.10;;;21.70;48.80;;;;;;4929384;29;20239;-46
2021/11/23 06:37:45;;;;;;;6.85;2.55;;;21.80;48.90;;;;;;4928849;29;20211;-46
2021/11/23 06:40:16;;;;;;;9.07;2.90;;;21.70;48.90;;;;;;4929898;29;20203;-47
2021/11/23 06:42:46;;;;;;;6.60;2.63;;;21.80;49.60;;;;;;4930805;29;20262;-48
2021/11/23 06:45:17;;;;;;;9.00;2.95;;;21.70;48.90;;;;;;4928542;29;20227;-51
2021/11/23 06:47:48;;;;;;;8.95;2.50;;;21.70;48.90;;;;;;4929631;29;20204;-50
2021/11/23 06:50:19;;;;;;;7.93;2.50;;;21.70;48.90;;;;;;4928355;29;20208;-48
2021/11/23 06:52:51;;;;;;;6.60;2.80;;;21.70;48.90;;;;;;4930213;29;20247;-49
2021/11/23 06:55:22;;;;;;;7.95;2.35;;;21.70;48.90;;;;;;4928720;29;20251;-45
2021/11/23 06:57:53;;;;;;;6.65;2.38;;;21.70;48.90;;;;;;4924467;29;20251;-50
2021/11/23 07:00:24;;;;;;;5.45;1.98;;;21.70;48.90;;;;;;4930178;29;20208;-47
2021/11/23 07:02:54;;;;;;;4.95;2.17;;;21.60;48.90;;;;;;4929271;29;20262;-48
2021/11/23 07:05:25;;;;;;;4.65;2.40;;;21.60;48.90;;;;;;4927971;29;20723;-49
2021/11/23 07:07:58;;;;;;;6.78;2.30;;;21.70;48.90;;;;;;4927870;29;20204;-46
2021/11/23 07:10:30;;;;;;;5.40;2.30;;;21.60;48.90;;;;;;4928278;29;20680;-49
2021/11/23 07:13:00;;;;;;;4.00;1.98;;;21.60;48.90;;;;;;4929983;29;20204;-52
2021/11/23 07:15:31;;;;;;;3.40;1.98;;;21.60;49.00;;;;;;4927773;29;20219;-52
2021/11/23 07:18:02;;;;;;;4.68;2.40;;;21.60;49.00;;;;;;4929077;29;20207;-50
2021/11/23 07:20:32;;;;;;;5.95;2.38;;;21.60;49.00;;;;;;4928950;29;20266;-50
2021/11/23 07:23:05;;;;;;;5.28;1.90;;;21.50;48.90;;;;;;4930159;29;20207;-49
2021/11/23 07:25:35;;;;;;;3.05;1.80;;;21.50;48.90;;;;;;4927780;29;20282;-48
2021/11/23 07:28:06;;;;;;;4.55;1.77;;;21.50;48.90;;;;;;4924249;29;20263;-51
2021/11/23 07:30:37;;;;;;;4.47;2.03;;;21.50;48.90;;;;;;4928899;29;20200;-51
2021/11/23 07:33:08;;;;;;;6.40;2.83;;;21.50;48.90;;;;;;4929685;29;20255;-49
2021/11/23 07:35:38;;;;;;;6.15;2.45;;;21.50;49.00;;;;;;4928646;29;20231;-52
2021/11/23 07:38:11;;;;;;;4.68;2.45;;;21.50;49.10;;;;;;4928443;29;20715;-46
2021/11/23 07:40:41;;;;;;;6.93;2.70;;;21.50;49.10;;;;;;4930437;29;20246;-51
2021/11/23 07:43:12;;;;;;;8.77;3.63;;;21.50;49.30;;;;;;4928817;29;20203;-50
2021/11/23 07:45:43;;;;;;;16.60;5.20;;;21.50;49.40;;;;;;4928664;29;20219;-51
2021/11/23 07:48:14;;;;;;;10.88;3.90;;;21.50;49.40;;;;;;4928635;29;20259;-51
2021/11/23 07:50:45;;;;;;;12.32;4.50;;;21.50;49.40;;;;;;4929478;29;20211;-49
2021/11/23 07:53:18;;;;;;;10.25;4.55;;;21.40;49.40;;;;;;4928433;29;20247;-47
2021/11/23 07:55:49;;;;;;;15.48;5.38;;;21.40;49.40;;;;;;4928615;29;20638;-50
2021/11/23 07:58:20;;;;;;;12.38;4.55;;;21.40;49.50;;;;;;4928021;29;20770;-52
2021/11/23 08:00:51;;;;;;;11.63;4.80;;;21.40;49.40;;;;;;4930634;29;20255;-52
2021/11/23 08:03:21;;;;;;;9.05;4.07;;;21.40;49.50;;;;;;4930983;29;20263;-49
2021/11/23 08:05:52;;;;;;;12.60;4.38;;;21.40;49.50;;;;;;4931552;29;20227;-47
2021/11/23 08:08:25;;;;;;;8.63;3.80;;;21.40;49.50;;;;;;4932092;29;20204;-46
2021/11/23 08:10:57;;;;;;;9.60;4.20;;;21.30;49.40;;;;;;4933015;29;20287;-53
2021/11/23 08:13:28;;;;;;;12.82;4.47;;;21.30;49.40;;;;;;4933686;29;20223;-49
2021/11/23 08:16:02;;;;;;;12.05;4.13;;;21.30;49.40;;;;;;4931089;29;20223;-49
2021/11/23 08:18:33;;;;;;;11.55;4.32;;;21.30;49.40;;;;;;4931574;29;20687;-50
2021/11/23 08:21:06;;;;;;;10.50;4.47;;;21.30;49.40;;;;;;4932822;29;20204;-47
2021/11/23 08:23:38;;;;;;;7.55;3.58;;;21.30;49.40;;;;;;4933275;29;20203;-48
2021/11/23 08:26:09;;;;;;;9.95;4.05;;;21.30;49.40;;;;;;4932028;29;20688;-51
2021/11/23 08:28:39;;;;;;;9.15;3.75;;;21.30;49.40;;;;;;4931093;29;20203;-53
2021/11/23 08:31:10;;;;;;;8.95;3.78;;;21.30;49.40;;;;;;4932925;29;20250;-50
2021/11/23 08:33:41;;;;;;;7.68;3.53;;;21.20;49.30;;;;;;4933015;29;20203;-53
2021/11/23 08:36:11;;;;;;;10.93;4.15;;;21.20;49.40;;;;;;4931024;29;20250;-50
2021/11/23 08:38:44;;;;;;;7.40;3.70;;;21.20;49.40;;;;;;4929909;29;20212;-52
2021/11/23 08:41:15;;;;;;;6.93;3.50;;;21.20;49.40;;;;;;4931680;29;20258;-45
2021/11/23 08:43:45;;;;;;;8.70;3.40;;;21.20;49.40;;;;;;4932273;29;20192;-49
2021/11/23 08:46:16;;;;;;;6.15;3.25;;;21.20;49.40;;;;;;4927297;29;20283;-50
2021/11/23 08:48:47;;;;;;;7.75;3.72;;;21.20;49.40;;;;;;4931936;29;20208;-52
2021/11/23 08:51:21;;;;;;;6.97;4.15;;;21.20;49.40;;;;;;4932713;29;20196;-49
2021/11/23 08:53:54;;;;;;;5.72;3.38;;;21.20;49.40;;;;;;4932297;29;20205;-54
2021/11/23 08:56:29;;;;;;;8.20;3.97;;;21.10;49.40;;;;;;4930450;29;20223;-50
2021/11/23 08:59:01;;;;;;;6.43;2.80;;;21.20;49.40;;;;;;4930476;29;20225;-47
2021/11/23 09:01:32;;;;;;;5.80;3.67;;;21.10;49.40;;;;;;4929102;29;20409;-48
2021/11/23 09:04:04;;;;;;;6.75;3.10;;;21.10;49.40;;;;;;4930156;29;20268;-49
2021/11/23 09:06:38;;;;;;;5.97;2.95;;;21.10;49.40;;;;;;4928574;29;20230;-51
2021/11/23 09:09:10;;;;;;;7.03;3.58;;;21.10;49.40;;;;;;4931368;29;20265;-54
2021/11/23 09:11:42;;;;;;;6.03;3.08;;;21.10;49.40;;;;;;4927426;29;20295;-53
2021/11/23 09:14:13;;;;;;;6.57;3.30;;;21.10;49.40;;;;;;4929477;29;20668;-54
2021/11/23 09:16:44;;;;;;;8.65;3.55;;;21.10;49.40;;;;;;4929979;29;20200;-54
2021/11/23 09:19:14;;;;;;;5.75;3.20;;;21.00;49.40;;;;;;4929936;29;20200;-51
2021/11/23 09:21:45;;;;;;;6.47;3.30;;;21.00;49.40;;;;;;4929626;29;20226;-53
2021/11/23 09:24:18;;;;;;;6.10;2.88;;;21.00;49.40;;;;;;4927767;29;20203;-52
2021/11/23 09:26:50;;;;;;;6.60;3.50;;;21.00;49.40;;;;;;4928303;29;20292;-48
2021/11/23 09:29:21;;;;;;;5.10;2.90;;;21.00;49.40;;;;;;4929319;29;20195;-50
2021/11/23 09:31:52;;;;;;;6.30;3.15;;;21.00;49.40;;;;;;4930562;29;20258;-50
2021/11/23 09:34:23;;;;;;;5.20;2.92;;;21.00;49.40;;;;;;4929299;29;20605;-55
2021/11/23 09:36:54;;;;;;;6.15;3.15;;;20.90;49.90;;;;;;4929294;29;20286;-54
2021/11/23 09:39:27;;;;;;;6.57;2.92;;;20.90;49.30;;;;;;4930903;29;20287;-53
2021/11/23 09:41:57;;;;;;;6.20;3.03;;;20.90;49.30;;;;;;4927787;29;20738;-54
2021/11/23 09:44:28;;;;;;;6.78;2.90;;;20.90;49.30;;;;;;4930346;29;20223;-54
2021/11/23 09:46:59;;;;;;;6.10;3.10;;;20.90;49.30;;;;;;4928538;29;21779;-57
2021/11/23 09:49:29;;;;;;;5.03;3.25;;;20.90;49.30;;;;;;4930331;29;20635;-55
2021/11/23 09:52:00;;;;;;;4.88;2.80;;;20.90;49.30;;;;;;4930063;29;20215;-52
2021/11/23 09:54:32;;;;;;;7.28;2.83;;;20.90;49.30;;;;;;4929410;29;20220;-55
2021/11/23 09:57:03;;;;;;;5.55;2.70;;;20.80;49.30;;;;;;4930606;29;20683;-48
2021/11/23 09:59:34;;;;;;;6.57;3.03;;;20.90;49.40;;;;;;4928773;29;20256;-55
2021/11/23 10:02:05;;;;;;;5.40;2.80;;;20.90;49.50;;;;;;4930630;29;20200;-54
2021/11/23 10:04:37;;;;;;;4.90;2.78;;;20.80;49.40;;;;;;4928152;29;20236;-54
2021/11/23 10:07:09;;;;;;;6.22;3.10;;;20.80;49.30;;;;;;4929333;29;20635;-54
2021/11/23 10:09:43;;;;;;;5.65;3.08;;;20.80;49.30;;;;;;4928398;29;20659;-50
2021/11/23 10:12:22;;;;;;;5.05;3.00;;;20.80;49.40;;;;;;4928045;29;20207;-54
2021/11/23 10:15:20;;;;;;;5.57;2.65;;;20.70;49.40;;;;;;4929204;29;20302;-55
2021/11/23 10:17:52;;;;;;;3.97;2.60;;;20.70;49.30;;;;;;4895011;29;20254;-55
2021/11/23 10:20:35;;;;;;;4.32;2.47;;;20.80;49.30;;;;;;4930056;29;20356;-55
2021/11/23 10:23:18;;;;;;;5.13;2.60;;;20.70;49.40;;;;;;4928356;29;20195;-51
2021/11/23 10:25:56;;;;;;;4.70;2.70;;;20.70;49.30;;;;;;4928479;29;20747;-50
2021/11/23 10:28:30;;;;;;;5.82;2.63;;;20.70;49.30;;;;;;4929621;29;20203;-47
2021/11/23 10:31:02;;;;;;;4.65;2.67;;;20.70;49.30;;;;;;4927925;29;20210;-47
2021/11/23 10:33:37;;;;;;;4.03;2.75;;;20.70;49.30;;;;;;4928671;29;20204;-53
2021/11/23 10:36:11;;;;;;;4.13;2.25;;;20.70;49.30;;;;;;4928534;29;20215;-52
2021/11/23 10:38:42;;;;;;;5.05;2.55;;;20.70;49.30;;;;;;4928870;29;20216;-53
2021/11/23 10:41:16;;;;;;;4.22;2.50;;;20.70;49.30;;;;;;4928608;29;20636;-56
2021/11/23 10:43:49;;;;;;;4.47;2.45;;;20.70;49.40;;;;;;4926839;29;20211;-55
2021/11/23 10:46:22;;;;;;;4.07;2.70;;;20.60;49.30;;;;;;4930339;29;20236;-51
2021/11/23 10:49:00;;;;;;;4.07;2.30;;;20.60;49.30;;;;;;4928197;29;20206;-55
2021/11/23 10:51:40;;;;;;;4.28;2.40;;;20.60;49.30;;;;;;4930319;29;20226;-53
2021/11/23 10:54:17;;;;;;;4.50;2.42;;;20.60;49.30;;;;;;4931643;29;20199;-52
2021/11/23 10:57:04;;;;;;;4.70;2.60;;;20.60;49.30;;;;;;4928693;29;20217;-46
2021/11/23 10:59:36;;;;;;;5.03;2.38;;;20.60;49.30;;;;;;4927736;29;20195;-47
2021/11/23 11:02:07;;;;;;;3.65;2.40;;;20.60;49.30;;;;;;4927450;29;20294;-47
2021/11/23 11:04:41;;;;;;;3.75;2.45;;;20.60;49.30;;;;;;4922807;29;20226;-49
2021/11/23 11:07:13;;;;;;;3.97;2.53;;;20.50;49.30;;;;;;4925516;29;20235;-45
2021/11/23 11:09:45;;;;;;;4.88;2.45;;;20.50;49.30;;;;;;4921973;29;20207;-49
2021/11/23 11:12:17;;;;;;;3.42;2.40;;;20.50;49.30;;;;;;4927175;29;20278;-48
2021/11/23 11:14:51;;;;;;;3.60;2.25;;;20.50;49.30;;;;;;4926152;29;20263;-46
2021/11/23 11:17:25;;;;;;;4.93;2.25;;;20.50;49.30;;;;;;4922987;29;20254;-51
2021/11/23 11:19:57;;;;;;;4.38;2.50;;;20.50;49.30;;;;;;4927637;29;20278;-48
2021/11/23 11:22:29;;;;;;;3.75;2.28;;;20.50;49.30;;;;;;4924393;29;20289;-49
2021/11/23 11:25:12;;;;;;;3.00;2.15;;;20.50;49.20;;;;;;4923611;29;20221;-49
2021/11/23 11:27:50;;;;;;;4.53;2.40;;;20.50;49.20;;;;;;4926497;29;20320;-48
2021/11/23 11:30:29;;;;;;;3.50;2.28;;;20.50;49.20;;;;;;4925746;29;20744;-51
2021/11/23 11:33:14;;;;;;;4.10;2.10;;;20.50;49.30;;;;;;4928160;29;20199;-50
2021/11/23 11:35:46;;;;;;;3.50;2.33;;;20.50;49.30;;;;;;4929907;29;20223;-46
2021/11/23 11:38:48;;;;;;;3.95;2.10;;;20.40;49.20;;;;;;4930823;29;20644;-49
2021/11/23 11:41:40;;;;;;;3.65;2.05;;;20.40;49.20;;;;;;4923806;29;20202;-48
2021/11/23 11:44:20;;;;;;;3.45;2.03;;;20.40;49.20;;;;;;4912963;29;20200;-48
2021/11/23 11:47:07;;;;;;;3.63;2.28;;;20.40;49.20;;;;;;4928220;29;20223;-52
2021/11/23 11:50:02;;;;;;;3.90;2.38;;;20.40;49.20;;;;;;4930616;29;20577;-48
2021/11/23 11:52:36;;;;;;;3.22;2.00;;;20.30;49.20;;;;;;4913290;29;20206;-47
2021/11/23 11:55:26;;;;;;;3.42;2.10;;;20.40;49.20;;;;;;4929007;29;20265;-46
2021/11/23 11:57:59;;;;;;;2.45;2.00;;;20.30;49.30;;;;;;4928643;29;20639;-48
2021/11/23 12:00:36;;;;;;;2.45;1.80;;;20.30;49.20;;;;;;4931134;29;20239;-51
2021/11/23 12:03:38;;;;;;;4.00;2.45;;;20.30;49.20;;;;;;4930607;29;20236;-47
2021/11/23 12:06:08;;;;;;;3.10;2.60;;;20.30;49.20;;;;;;4931027;29;20702;-47
2021/11/23 12:08:40;;;;;;;2.90;1.95;;;20.30;49.30;;;;;;4929498;29;20234;-48
2021/11/23 12:11:13;;;;;;;2.55;1.75;;;20.30;49.20;;;;;;4931058;29;20225;-49
2021/11/23 12:13:51;;;;;;;4.40;2.20;;;20.30;49.30;;;;;;4929752;29;20652;-48
2021/11/23 12:16:32;;;;;;;2.40;1.73;;;20.30;49.30;;;;;;4930497;29;20251;-48
2021/11/23 12:19:27;;;;;;;3.28;1.90;;;20.30;49.30;;;;;;4929272;29;20884;-46
2021/11/23 12:22:02;;;;;;;3.15;1.95;;;20.30;49.30;;;;;;4928708;29;20745;-49
2021/11/23 12:24:38;;;;;;;4.25;2.22;;;20.30;49.20;;;;;;4930584;29;20711;-48
2021/11/23 12:27:12;;;;;;;2.58;1.90;;;20.20;49.50;;;;;;4928704;29;20599;-47
2021/11/23 12:29:42;;;;;;;2.28;1.70;;;20.20;49.20;;;;;;4928672;29;20738;-52
2021/11/23 12:32:16;;;;;;;2.83;2.00;;;20.20;49.30;;;;;;4930956;29;20200;-48
2021/11/23 12:34:54;;;;;;;2.53;1.80;;;20.20;49.30;;;;;;4928660;29;20306;-45
2021/11/23 12:37:34;;;;;;;3.10;1.90;;;20.20;49.30;;;;;;4919403;29;20203;-50
2021/11/23 12:40:14;;;;;;;2.95;1.80;;;20.20;49.30;;;;;;4928669;29;20231;-48
2021/11/23 12:42:51;;;;;;;2.33;2.00;;;20.20;49.30;;;;;;4930162;29;20287;-52
2021/11/23 12:45:23;;;;;;;2.72;1.98;;;20.10;49.20;;;;;;4929609;29;20295;-47
2021/11/23 12:47:56;;;;;;;3.63;1.98;;;20.20;49.30;;;;;;4930037;29;20270;-49
2021/11/23 12:50:30;;;;;;;2.40;1.80;;;20.10;49.20;;;;;;4934846;29;20255;-47
2021/11/23 12:53:05;;;;;;;2.78;1.90;;;20.10;49.20;;;;;;4932191;29;20198;-45
2021/11/23 12:55:36;;;;;;;2.28;2.00;;;20.10;49.20;;;;;;4934207;29;21613;-52
2021/11/23 12:58:07;;;;;;;2.72;1.65;;;20.10;49.20;;;;;;4929874;29;20216;-48
2021/11/23 13:00:41;;;;;;;2.17;1.60;;;20.10;49.20;;;;;;4933538;29;20207;-50
2021/11/23 13:03:14;;;;;;;2.38;1.73;;;20.10;49.20;;;;;;4933328;29;20207;-47
2021/11/23 13:05:44;;;;;;;2.83;1.85;;;20.10;49.20;;;;;;4932053;29;20298;-52
2021/11/23 13:08:20;;;;;;;2.63;2.10;;;20.10;49.20;;;;;;4933329;29;20229;-46
2021/11/23 13:10:52;;;;;;;2.97;1.70;;;20.10;49.20;;;;;;4930834;29;20206;-50
2021/11/23 13:13:28;;;;;;;2.33;1.90;;;20.10;49.20;;;;;;4932216;29;20204;-49